createdAt,value
2023-05-12T00:01:44.688Z,13.25
2023-05-12T00:04:12.698Z,13.21
2023-05-12T00:06:40.721Z,13.18
2023-05-12T00:09:09.713Z,13.19
2023-05-12T00:11:38.015Z,13.17
2023-05-12T00:14:06.005Z,13.16
2023-05-12T00:16:34.022Z,13.13
2023-05-12T00:19:03.429Z,13.06
2023-05-12T00:21:31.394Z,13.02
2023-05-12T00:23:59.285Z,13.00
2023-05-12T00:26:27.634Z,12.98
2023-05-12T00:28:55.599Z,12.93
2023-05-12T00:31:23.542Z,12.93
2023-05-12T00:33:51.558Z,12.93
2023-05-12T00:36:20.853Z,12.91
2023-05-12T00:38:48.878Z,12.87
2023-05-12T00:41:16.832Z,12.83
2023-05-12T00:43:44.816Z,12.76
2023-05-12T00:46:12.735Z,12.73
2023-05-12T00:48:40.685Z,12.72
2023-05-12T00:51:08.834Z,12.77
2023-05-12T00:53:48.308Z,12.70
2023-05-12T00:56:18.628Z,12.71
2023-05-12T00:58:46.933Z,12.70
2023-05-12T01:01:14.993Z,12.74
2023-05-12T01:03:43.080Z,12.81
2023-05-12T01:06:14.610Z,12.79
2023-05-12T01:08:43.885Z,12.77
2023-05-12T01:11:11.993Z,12.74
2023-05-12T01:13:41.294Z,12.71
2023-05-12T01:16:10.787Z,12.74
2023-05-12T01:18:39.475Z,12.74
2023-05-12T01:21:07.820Z,12.74
2023-05-12T01:23:39.284Z,12.72
2023-05-12T01:26:09.470Z,12.69
2023-05-12T01:28:37.800Z,12.68
2023-05-12T01:31:06.722Z,12.72
2023-05-12T01:33:35.196Z,12.71
2023-05-12T01:36:03.112Z,12.71
2023-05-12T01:38:31.009Z,12.74
2023-05-12T01:40:58.992Z,12.76
2023-05-12T01:43:28.299Z,12.77
2023-05-12T01:45:56.217Z,12.77
2023-05-12T01:48:24.091Z,12.79
2023-05-12T01:50:52.002Z,12.80
2023-05-12T01:53:19.925Z,12.77
2023-05-12T01:55:47.899Z,12.80
2023-05-12T01:58:15.980Z,12.81
2023-05-12T02:00:45.248Z,12.80
2023-05-12T02:03:13.220Z,12.80
2023-05-12T02:05:41.404Z,12.80
2023-05-12T02:08:09.389Z,12.79
2023-05-12T02:10:37.369Z,12.79
2023-05-12T02:13:05.349Z,12.78
2023-05-12T02:15:33.348Z,12.74
2023-05-12T02:18:03.820Z,12.76
2023-05-12T02:20:31.794Z,12.76
2023-05-12T02:22:59.693Z,12.77
2023-05-12T02:25:27.626Z,12.79
2023-05-12T02:27:55.531Z,12.80
2023-05-12T02:30:23.768Z,12.83
2023-05-12T02:32:51.715Z,12.84
2023-05-12T02:35:21.477Z,12.81
2023-05-12T02:37:49.451Z,12.79
2023-05-12T02:40:17.791Z,12.80
2023-05-12T02:42:45.816Z,12.81
2023-05-12T02:45:14.205Z,12.83
2023-05-12T02:47:42.298Z,12.82
2023-05-12T02:50:10.819Z,12.78
2023-05-12T02:52:40.139Z,12.80
2023-05-12T02:55:08.569Z,12.80
2023-05-12T02:57:37.700Z,12.81
2023-05-12T03:00:06.817Z,12.79
2023-05-12T03:02:36.251Z,12.82
2023-05-12T03:05:04.400Z,12.82
2023-05-12T03:07:32.580Z,12.83
2023-05-12T03:10:02.438Z,12.80
2023-05-12T03:12:30.433Z,12.80
2023-05-12T03:14:58.634Z,12.81
2023-05-12T03:17:26.870Z,12.81
2023-05-12T03:19:54.810Z,12.80
2023-05-12T03:22:22.760Z,12.81
2023-05-12T03:24:50.710Z,12.76
2023-05-12T03:27:20.008Z,12.80
2023-05-12T03:29:47.921Z,12.81
2023-05-12T03:32:15.930Z,12.80
2023-05-12T03:34:43.842Z,12.79
2023-05-12T03:37:11.786Z,12.78
2023-05-12T03:39:39.680Z,12.80
2023-05-12T03:42:07.919Z,12.79
2023-05-12T03:44:37.226Z,12.80
2023-05-12T03:47:05.478Z,12.78
2023-05-12T03:49:33.476Z,12.78
2023-05-12T03:52:01.614Z,12.78
2023-05-12T03:54:29.538Z,12.77
2023-05-12T03:56:57.462Z,12.74
2023-05-12T03:59:25.794Z,12.75
2023-05-12T04:01:55.087Z,12.74
2023-05-12T04:04:23.003Z,12.76
2023-05-12T04:06:50.999Z,12.76
2023-05-12T04:09:18.920Z,12.73
2023-05-12T04:11:46.783Z,12.75
2023-05-12T04:14:14.788Z,12.75
2023-05-12T04:16:42.724Z,12.75
2023-05-12T04:19:12.125Z,12.76
2023-05-12T04:21:40.024Z,12.76
2023-05-12T04:24:07.989Z,12.77
2023-05-12T04:26:35.895Z,12.78
2023-05-12T04:29:03.777Z,12.77
2023-05-12T04:31:31.714Z,12.80
2023-05-12T04:33:59.663Z,12.80
2023-05-12T04:36:28.928Z,12.77
2023-05-12T04:38:56.909Z,12.77
2023-05-12T04:41:24.803Z,12.78
2023-05-12T04:46:23.630Z,12.81
2023-05-12T04:48:51.548Z,12.81
2023-05-12T04:51:19.456Z,12.82
2023-05-12T04:53:48.756Z,12.84
2023-05-12T04:56:16.896Z,12.85
2023-05-12T04:58:44.868Z,12.87
2023-05-12T05:01:13.681Z,12.90
2023-05-12T05:03:41.763Z,12.93
2023-05-12T05:06:09.772Z,12.97
2023-05-12T05:08:37.651Z,13.00
2023-05-12T05:11:07.033Z,13.02
2023-05-12T05:13:34.917Z,13.07
2023-05-12T05:16:02.992Z,13.08
2023-05-12T05:18:30.949Z,13.10
2023-05-12T05:20:59.357Z,13.16
2023-05-12T05:23:27.544Z,13.19
2023-05-12T05:25:55.482Z,13.21
2023-05-12T05:28:24.918Z,13.23
2023-05-12T05:30:52.855Z,13.29
2023-05-12T05:33:21.364Z,13.32
2023-05-12T05:35:49.290Z,13.37
2023-05-12T05:38:17.243Z,13.38
2023-05-12T05:40:52.159Z,13.47
2023-05-12T05:43:21.866Z,13.49
2023-05-12T05:45:51.487Z,13.58
2023-05-12T05:48:19.537Z,13.62
2023-05-12T05:50:47.479Z,13.66
2023-05-12T05:53:15.540Z,13.66
2023-05-12T05:55:43.556Z,13.71
2023-05-12T05:58:11.492Z,13.77
2023-05-12T06:00:39.458Z,13.83
2023-05-12T06:03:08.805Z,13.89
2023-05-12T06:05:36.864Z,13.94
2023-05-12T06:08:05.306Z,14.05
2023-05-12T06:10:33.381Z,14.08
2023-05-12T06:13:01.331Z,14.14
2023-05-12T06:15:29.245Z,14.17
2023-05-12T06:17:57.203Z,14.26
2023-05-12T06:20:26.511Z,14.28
2023-05-12T06:22:54.436Z,14.36
2023-05-12T06:25:22.644Z,14.40
2023-05-12T06:27:52.037Z,14.54
2023-05-12T06:30:20.154Z,14.57
2023-05-12T06:32:48.175Z,14.62
2023-05-12T06:35:16.800Z,14.73
2023-05-12T06:37:49.737Z,14.77
2023-05-12T06:40:18.066Z,14.84
2023-05-12T06:42:46.042Z,14.90
2023-05-12T06:45:14.019Z,14.94
2023-05-12T06:47:42.107Z,14.98
2023-05-12T06:50:10.441Z,15.09
2023-05-12T06:52:38.620Z,15.12
2023-05-12T06:55:08.673Z,15.21
2023-05-12T06:57:36.730Z,15.27
2023-05-12T07:00:05.036Z,15.30
2023-05-12T07:02:32.995Z,15.35
2023-05-12T07:05:00.996Z,15.44
2023-05-12T07:07:28.918Z,15.47
2023-05-12T07:09:57.170Z,15.52
2023-05-12T07:12:26.544Z,15.59
2023-05-12T07:14:54.473Z,15.63
2023-05-12T07:17:22.799Z,15.63
2023-05-12T07:19:50.720Z,15.65
2023-05-12T07:22:21.374Z,15.75
2023-05-12T07:24:49.295Z,15.82
2023-05-12T07:27:17.758Z,15.87
2023-05-12T07:29:47.050Z,15.92
2023-05-12T07:32:14.956Z,15.95
2023-05-12T07:34:42.885Z,16.07
2023-05-12T07:37:10.777Z,16.07
2023-05-12T07:39:38.661Z,16.07
2023-05-12T07:42:07.160Z,16.17
2023-05-12T07:44:35.055Z,16.27
2023-05-12T07:47:05.231Z,16.30
2023-05-12T07:49:33.190Z,16.37
2023-05-12T07:52:01.355Z,16.41
2023-05-12T07:54:29.281Z,16.47
2023-05-12T07:56:57.165Z,16.52
2023-05-12T07:59:25.093Z,16.58
2023-05-12T08:01:54.070Z,16.66
2023-05-12T08:04:23.543Z,16.72
2023-05-12T08:06:51.520Z,16.81
2023-05-12T08:09:19.517Z,16.80
2023-05-12T08:11:49.409Z,16.75
2023-05-12T08:14:19.313Z,16.82
2023-05-12T08:16:47.919Z,16.88
2023-05-12T08:19:15.980Z,17.07
2023-05-12T08:21:45.718Z,17.06
2023-05-12T08:24:13.618Z,17.15
2023-05-12T08:26:41.517Z,17.30
2023-05-12T08:29:09.733Z,17.44
2023-05-12T08:31:39.494Z,17.55
2023-05-12T08:34:10.752Z,17.64
2023-05-12T08:36:39.281Z,17.72
2023-05-12T08:39:10.202Z,17.81
2023-05-12T08:41:45.577Z,17.80
2023-05-12T08:44:13.924Z,17.99
2023-05-12T08:46:42.138Z,18.03
2023-05-12T08:49:15.788Z,18.02
2023-05-12T08:51:54.498Z,18.09
2023-05-12T08:54:28.451Z,18.21
2023-05-12T08:59:28.037Z,18.29
2023-05-12T09:01:56.533Z,18.41
2023-05-12T09:04:24.609Z,18.35
2023-05-12T09:06:54.990Z,18.41
2023-05-12T09:09:25.921Z,18.31
2023-05-12T09:11:57.683Z,18.43
2023-05-12T09:14:26.826Z,18.43
2023-05-12T09:16:57.384Z,18.52
2023-05-12T09:19:25.289Z,18.64
2023-05-12T09:21:53.395Z,18.77
2023-05-12T09:24:22.400Z,19.00
2023-05-12T09:26:54.461Z,19.00
2023-05-12T09:29:31.221Z,19.03
2023-05-12T09:32:02.602Z,19.17
2023-05-12T09:34:32.166Z,19.29
2023-05-12T09:37:01.353Z,19.41
2023-05-12T09:39:29.632Z,19.39
2023-05-12T09:41:58.955Z,19.61
2023-05-12T09:44:29.022Z,19.76
2023-05-12T09:46:56.963Z,19.90
2023-05-12T09:49:27.120Z,20.05
2023-05-12T09:51:56.771Z,20.25
2023-05-12T09:54:28.384Z,20.33
2023-05-12T09:57:00.719Z,20.43
2023-05-12T09:59:32.756Z,20.55
2023-05-12T10:02:01.763Z,20.68
2023-05-12T10:04:33.126Z,20.95
2023-05-12T10:07:01.195Z,20.89
2023-05-12T10:09:34.076Z,21.15
2023-05-12T10:12:04.695Z,21.06
2023-05-12T10:14:32.930Z,20.94
2023-05-12T10:17:01.593Z,20.98
2023-05-12T10:19:30.179Z,21.25
2023-05-12T10:21:58.726Z,21.48
2023-05-12T10:24:28.031Z,21.56
2023-05-12T10:26:56.771Z,21.76
2023-05-12T10:29:30.152Z,21.74
2023-05-12T10:31:58.576Z,21.83
2023-05-12T10:34:31.635Z,22.36
2023-05-12T10:36:59.679Z,22.26
2023-05-12T10:39:29.760Z,22.43
2023-05-12T10:42:02.819Z,22.45
2023-05-12T10:44:32.185Z,22.53
2023-05-12T10:47:00.352Z,22.63
2023-05-12T10:49:35.140Z,22.77
2023-05-12T10:52:03.076Z,22.62
2023-05-12T10:54:30.977Z,22.72
2023-05-12T10:57:02.246Z,22.95
2023-05-12T10:59:32.187Z,23.05
2023-05-12T11:02:03.583Z,22.66
2023-05-12T11:04:42.253Z,22.40
2023-05-12T11:07:12.190Z,22.32
2023-05-12T11:09:50.586Z,22.30
2023-05-12T11:12:21.780Z,22.23
2023-05-12T11:14:51.167Z,22.21
2023-05-12T11:17:19.051Z,22.15
2023-05-12T11:19:49.592Z,22.17
2023-05-12T11:22:19.260Z,22.26
2023-05-12T11:24:47.918Z,22.33
2023-05-12T11:27:17.091Z,22.22
2023-05-12T11:29:47.100Z,22.09
2023-05-12T11:32:17.289Z,22.09
2023-05-12T11:34:45.483Z,22.03
2023-05-12T11:37:13.371Z,22.23
2023-05-12T11:39:42.679Z,22.58
2023-05-12T11:42:13.587Z,22.26
2023-05-12T11:44:48.445Z,22.24
2023-05-12T11:47:18.532Z,22.25
2023-05-12T11:49:48.454Z,22.24
2023-05-12T11:52:17.256Z,22.23
2023-05-12T11:54:50.188Z,22.23
2023-05-12T11:57:26.779Z,22.11
2023-05-12T11:59:58.952Z,22.00
2023-05-12T12:02:28.600Z,21.95
2023-05-12T12:04:56.607Z,22.17
2023-05-12T12:07:31.898Z,22.70
2023-05-12T12:10:00.366Z,23.12
2023-05-12T12:12:28.312Z,23.36
2023-05-12T12:15:00.048Z,23.76
2023-05-12T12:17:31.337Z,23.55
2023-05-12T12:19:59.477Z,23.62
2023-05-12T12:22:27.463Z,23.73
2023-05-12T12:24:55.379Z,23.85
2023-05-12T12:27:23.276Z,24.06
2023-05-12T12:29:51.404Z,24.18
2023-05-12T12:32:19.676Z,24.16
2023-05-12T12:34:49.319Z,24.33
2023-05-12T12:37:17.729Z,24.43
2023-05-12T12:39:47.672Z,24.56
2023-05-12T12:42:16.019Z,24.39
2023-05-12T12:44:46.026Z,24.55
2023-05-12T12:47:13.996Z,24.70
2023-05-12T12:49:41.990Z,24.95
2023-05-12T12:52:11.432Z,25.16
2023-05-12T12:54:39.316Z,25.28
2023-05-12T12:57:07.266Z,25.47
2023-05-12T12:59:35.176Z,25.54
2023-05-12T13:02:03.256Z,25.80
2023-05-12T13:04:31.385Z,25.72
2023-05-12T13:06:59.316Z,25.89
2023-05-12T13:09:28.656Z,25.86
2023-05-12T13:11:56.617Z,25.92
2023-05-12T13:14:24.931Z,26.16
2023-05-12T13:16:53.001Z,26.13
2023-05-12T13:19:21.721Z,26.09
2023-05-12T13:21:49.662Z,26.10
2023-05-12T13:24:17.628Z,26.08
2023-05-12T13:26:46.924Z,25.75
2023-05-12T13:29:14.808Z,25.50
2023-05-12T13:31:43.121Z,25.78
2023-05-12T13:34:11.098Z,25.81
2023-05-12T13:36:39.014Z,25.89
2023-05-12T13:39:07.115Z,26.08
2023-05-12T13:41:35.033Z,26.26
2023-05-12T13:44:04.563Z,26.23
2023-05-12T13:46:32.547Z,26.62
2023-05-12T13:49:00.786Z,26.59
2023-05-12T13:51:28.735Z,26.68
2023-05-12T13:53:57.001Z,26.65
2023-05-12T13:56:25.718Z,26.55
2023-05-12T13:58:53.638Z,26.75
2023-05-12T14:01:22.946Z,27.21
2023-05-12T14:03:51.096Z,26.88
2023-05-12T14:06:18.979Z,26.80
2023-05-12T14:08:46.892Z,27.07
2023-05-12T14:11:14.911Z,27.21
2023-05-12T14:13:42.821Z,27.29
2023-05-12T14:16:12.834Z,27.30
2023-05-12T14:18:43.527Z,27.30
2023-05-12T14:21:11.903Z,27.13
2023-05-12T14:23:40.085Z,27.09
2023-05-12T14:26:07.984Z,27.13
2023-05-12T14:28:37.116Z,27.21
2023-05-12T14:31:05.210Z,27.70
2023-05-12T14:33:33.243Z,27.88
2023-05-12T14:36:07.495Z,27.92
2023-05-12T14:38:36.873Z,27.93
2023-05-12T14:41:07.104Z,28.16
2023-05-12T14:43:35.088Z,28.31
2023-05-12T14:46:03.057Z,28.25
2023-05-12T14:48:31.806Z,28.17
2023-05-12T14:51:00.333Z,28.16
2023-05-12T14:53:29.657Z,28.18
2023-05-12T14:55:57.575Z,28.21
2023-05-12T14:58:25.513Z,28.29
2023-05-12T15:00:53.622Z,28.43
2023-05-12T15:03:21.810Z,28.48
2023-05-12T15:08:22.820Z,28.80
2023-05-12T15:10:52.336Z,28.49
2023-05-12T15:13:23.028Z,28.67
2023-05-12T15:15:51.896Z,28.51
2023-05-12T15:18:22.140Z,28.46
2023-05-12T15:20:50.100Z,28.31
2023-05-12T15:23:18.079Z,27.77
2023-05-12T15:25:46.073Z,27.96
2023-05-12T15:28:15.553Z,28.14
2023-05-12T15:30:43.461Z,28.13
2023-05-12T15:33:11.419Z,28.05
2023-05-12T15:35:40.757Z,27.92
2023-05-12T15:38:08.726Z,27.84
2023-05-12T15:40:36.621Z,28.13
2023-05-12T15:43:05.015Z,28.34
2023-05-12T15:45:37.291Z,28.27
2023-05-12T15:48:08.715Z,28.05
2023-05-12T15:50:38.081Z,28.19
2023-05-12T15:53:06.938Z,27.96
2023-05-12T15:55:34.860Z,27.71
2023-05-12T15:58:03.613Z,27.22
2023-05-12T16:00:31.589Z,27.73
2023-05-12T16:03:01.843Z,27.92
2023-05-12T16:05:29.979Z,27.79
2023-05-12T16:07:57.873Z,27.34
2023-05-12T16:10:25.779Z,27.24
2023-05-12T16:12:53.692Z,27.58
2023-05-12T16:15:21.913Z,27.51
2023-05-12T16:17:50.079Z,27.24
2023-05-12T16:20:19.571Z,26.66
2023-05-12T16:22:48.293Z,27.16
2023-05-12T16:25:16.317Z,27.41
2023-05-12T16:27:44.212Z,27.10
2023-05-12T16:30:13.344Z,27.36
2023-05-12T16:32:41.766Z,27.67
2023-05-12T16:35:10.972Z,27.85
2023-05-12T16:37:40.296Z,27.98
2023-05-12T16:40:09.742Z,27.94
2023-05-12T16:42:37.706Z,27.98
2023-05-12T16:45:06.449Z,27.65
2023-05-12T16:47:34.404Z,28.04
2023-05-12T16:50:02.524Z,27.86
2023-05-12T16:52:30.661Z,27.81
2023-05-12T16:55:00.208Z,27.99
2023-05-12T16:57:28.191Z,28.08
2023-05-12T16:59:56.135Z,27.97
2023-05-12T17:02:24.112Z,27.66
2023-05-12T17:04:52.059Z,27.62
2023-05-12T17:07:19.987Z,27.26
2023-05-12T17:09:47.889Z,26.97
2023-05-12T17:12:17.216Z,27.03
2023-05-12T17:14:50.124Z,27.11
2023-05-12T17:17:18.148Z,27.24
2023-05-12T17:19:46.156Z,27.13
2023-05-12T17:22:14.402Z,26.83
2023-05-12T17:24:42.304Z,26.46
2023-05-12T17:27:10.180Z,26.42
2023-05-12T17:29:39.464Z,26.28
2023-05-12T17:32:08.079Z,26.23
2023-05-12T17:34:36.008Z,25.94
2023-05-12T17:37:06.058Z,25.88
2023-05-12T17:39:34.487Z,25.68
2023-05-12T17:42:03.282Z,24.88
2023-05-12T17:44:31.681Z,24.41
2023-05-12T17:47:01.292Z,24.17
2023-05-12T17:49:29.325Z,23.65
2023-05-12T17:51:57.253Z,23.74
2023-05-12T17:54:25.174Z,23.53
2023-05-12T17:56:53.096Z,23.37
2023-05-12T17:59:21.026Z,22.99
2023-05-12T18:01:49.158Z,23.21
2023-05-12T18:04:19.371Z,23.33
2023-05-12T18:06:50.099Z,23.25
2023-05-12T18:09:19.860Z,23.15
2023-05-12T18:11:48.041Z,22.81
2023-05-12T18:14:16.007Z,22.70
2023-05-12T18:16:43.961Z,22.68
2023-05-12T18:19:11.945Z,22.83
2023-05-12T18:21:41.264Z,22.42
2023-05-12T18:24:09.465Z,22.32
2023-05-12T18:26:37.569Z,22.20
2023-05-12T18:29:05.554Z,22.19
2023-05-12T18:31:34.358Z,22.17
2023-05-12T18:34:02.324Z,22.04
2023-05-12T18:36:30.230Z,21.63
2023-05-12T18:38:59.488Z,21.34
2023-05-12T18:41:27.784Z,21.23
2023-05-12T18:43:55.714Z,21.18
2023-05-12T18:46:23.707Z,21.21
2023-05-12T18:48:51.621Z,21.03
2023-05-12T18:51:19.552Z,20.81
2023-05-12T18:53:47.940Z,20.79
2023-05-12T18:56:17.212Z,20.61
2023-05-12T18:58:45.130Z,20.71
2023-05-12T19:01:13.035Z,20.49
2023-05-12T19:03:41.423Z,20.41
2023-05-12T19:06:09.361Z,20.39
2023-05-12T19:08:37.260Z,20.38
2023-05-12T19:11:05.178Z,20.38
2023-05-12T19:13:34.507Z,20.48
2023-05-12T19:16:02.468Z,20.30
2023-05-12T19:18:30.708Z,20.16
2023-05-12T19:20:58.601Z,19.93
2023-05-12T19:23:26.772Z,19.94
2023-05-12T19:25:54.764Z,20.01
2023-05-12T19:28:22.670Z,19.93
2023-05-12T19:30:51.983Z,19.77
2023-05-12T19:33:19.883Z,19.79
2023-05-12T19:35:47.843Z,19.56
2023-05-12T19:38:15.846Z,19.59
2023-05-12T19:40:46.573Z,19.52
2023-05-12T19:43:14.480Z,19.61
2023-05-12T19:45:42.527Z,19.56
2023-05-12T19:48:11.969Z,19.56
2023-05-12T19:50:39.908Z,19.46
2023-05-12T19:53:08.000Z,19.41
2023-05-12T19:55:36.197Z,19.30
2023-05-12T19:58:04.107Z,19.21
2023-05-12T20:00:32.012Z,19.03
2023-05-12T20:03:00.089Z,18.99
2023-05-12T20:05:29.551Z,18.86
2023-05-12T20:07:57.820Z,18.75
2023-05-12T20:10:25.897Z,18.50
2023-05-12T20:12:54.889Z,18.32
2023-05-12T20:15:22.970Z,18.24
2023-05-12T20:17:51.218Z,18.10
2023-05-12T20:20:19.106Z,17.85
2023-05-12T20:22:48.516Z,17.74
2023-05-12T20:25:17.765Z,17.87
2023-05-12T20:27:45.826Z,17.96
2023-05-12T20:30:14.267Z,17.98
2023-05-12T20:32:43.604Z,17.74
2023-05-12T20:35:11.547Z,17.54
2023-05-12T20:37:40.566Z,17.35
2023-05-12T20:40:11.082Z,17.34
2023-05-12T20:42:38.966Z,17.34
2023-05-12T20:45:08.078Z,17.37
2023-05-12T20:47:36.758Z,17.35
2023-05-12T20:50:05.651Z,17.27
2023-05-12T20:52:33.779Z,17.14
2023-05-12T20:55:01.753Z,17.12
2023-05-12T20:57:31.080Z,17.14
2023-05-12T20:59:58.990Z,17.20
2023-05-12T21:02:28.232Z,17.26
2023-05-12T21:04:56.958Z,17.22
2023-05-12T21:07:24.934Z,17.06
2023-05-12T21:09:52.889Z,17.04
2023-05-12T21:12:20.808Z,16.92
2023-05-12T21:14:50.119Z,16.88
2023-05-12T21:17:18.078Z,16.67
2023-05-12T21:19:46.257Z,16.57
2023-05-12T21:22:14.267Z,16.38
2023-05-12T21:24:43.057Z,16.43
2023-05-12T21:27:11.585Z,16.31
2023-05-12T21:29:39.598Z,16.29
2023-05-12T21:32:09.281Z,16.15
2023-05-12T21:34:37.249Z,16.07
2023-05-12T21:37:05.336Z,16.11
2023-05-12T21:39:33.255Z,16.12
2023-05-12T21:42:01.175Z,15.98
2023-05-12T21:44:29.092Z,15.99
2023-05-12T21:46:58.718Z,16.07
2023-05-12T21:49:28.102Z,16.07
2023-05-12T21:51:56.329Z,16.00
2023-05-12T21:54:24.242Z,16.03
2023-05-12T21:56:52.562Z,15.88
2023-05-12T21:59:20.712Z,15.84
2023-05-12T22:01:48.764Z,15.86
2023-05-12T22:04:16.703Z,15.78
2023-05-12T22:06:45.993Z,15.72
2023-05-12T22:09:14.389Z,15.60
2023-05-12T22:11:42.336Z,15.65
2023-05-12T22:14:10.252Z,15.58
2023-05-12T22:16:41.708Z,15.65
2023-05-12T22:19:10.521Z,15.66
2023-05-12T22:21:38.608Z,15.52
2023-05-12T22:24:08.732Z,15.44
2023-05-12T22:26:36.634Z,15.45
2023-05-12T22:29:04.559Z,15.45
2023-05-12T22:31:32.521Z,15.40
2023-05-12T22:34:00.441Z,15.55
2023-05-12T22:36:28.369Z,15.58
2023-05-12T22:38:56.363Z,15.59
2023-05-12T22:41:25.808Z,15.58
2023-05-12T22:43:53.704Z,15.61
2023-05-12T22:46:21.716Z,15.57
2023-05-12T22:48:50.859Z,15.57
2023-05-12T22:51:18.727Z,15.58
2023-05-12T22:53:46.710Z,15.52
2023-05-12T22:56:14.610Z,15.50
2023-05-12T22:58:43.899Z,15.46
2023-05-12T23:01:11.928Z,15.34
2023-05-12T23:03:39.891Z,15.38
2023-05-12T23:06:08.091Z,15.25
2023-05-12T23:08:36.086Z,15.20
2023-05-12T23:11:03.996Z,15.15
2023-05-12T23:13:31.892Z,15.12
2023-05-12T23:16:01.246Z,14.96
2023-05-12T23:18:29.204Z,15.04
2023-05-12T23:20:57.133Z,14.89
2023-05-12T23:23:25.145Z,14.83
2023-05-12T23:25:53.059Z,14.79
2023-05-12T23:28:21.201Z,14.80
2023-05-12T23:30:49.131Z,14.80
2023-05-12T23:33:18.506Z,14.87
2023-05-12T23:35:46.441Z,14.80
2023-05-12T23:38:14.350Z,14.82
2023-05-12T23:40:42.280Z,14.77
2023-05-12T23:43:10.181Z,14.74
2023-05-12T23:45:38.175Z,14.70
2023-05-12T23:48:06.779Z,14.71
2023-05-12T23:50:36.125Z,14.68
2023-05-12T23:53:04.047Z,14.59
2023-05-12T23:55:31.975Z,14.54
2023-05-12T23:58:00.111Z,14.54
